Nearby METAR Reports

 

KDEN - Denver, Colorado, Denver International Airport, USA
Distance from station: W 194mi, 312.4km
Updated: Sun, 19-Sep-2021 5:53pm CDT
Few Clouds
Few Clouds
 Wind from NNW
Wind: NNW 8 mph , 13 km/h
Temperature: 84°F , 29°C
Dew Point: 34°F , 1°C
Humidity: 16%
Barometer: 29.81 inHg , 1009.5 hPa
Clouds: Few Clouds
Visibility: 10 miles , 16 km
Cloud details: Few Clouds 12000 ft
2021/09/19 22:53 KDEN 192253Z 33007KT 10SM FEW120 29/01 A2981 RMK AO2 SLP003 T02940011